createdAt,value
2017-12-13T00:01:06.802Z,84.91
2017-12-13T00:03:36.034Z,84.54
2017-12-13T00:06:06.019Z,84.44
2017-12-13T00:08:35.278Z,84.64
2017-12-13T00:11:04.481Z,84.40
2017-12-13T00:13:33.712Z,84.46
2017-12-13T00:16:02.987Z,84.36
2017-12-13T00:18:32.195Z,84.26
2017-12-13T00:21:01.404Z,83.99
2017-12-13T00:23:30.716Z,83.67
2017-12-13T00:25:59.972Z,83.32
2017-12-13T00:28:29.182Z,83.50
2017-12-13T00:30:58.550Z,83.13
2017-12-13T00:33:27.787Z,83.06
2017-12-13T00:35:57.008Z,82.95
2017-12-13T00:38:26.210Z,83.12
2017-12-13T00:40:55.391Z,83.06
2017-12-13T00:43:24.666Z,83.02
2017-12-13T00:45:53.950Z,82.88
2017-12-13T00:48:23.171Z,82.75
2017-12-13T00:50:52.371Z,83.19
2017-12-13T00:53:21.564Z,83.15
2017-12-13T00:55:50.796Z,82.96
2017-12-13T00:58:20.758Z,83.18
2017-12-13T01:00:50.257Z,82.91
2017-12-13T01:03:19.639Z,82.95
2017-12-13T01:05:48.842Z,82.93
2017-12-13T01:08:18.067Z,83.08
2017-12-13T01:10:47.382Z,82.96
2017-12-13T01:13:16.573Z,83.10
2017-12-13T01:15:45.822Z,83.43
2017-12-13T01:18:15.784Z,83.44
2017-12-13T01:20:45.011Z,83.52
2017-12-13T01:23:14.219Z,83.72
2017-12-13T01:25:43.566Z,83.83
2017-12-13T01:28:12.780Z,83.56
2017-12-13T01:30:42.015Z,83.61
2017-12-13T01:33:12.018Z,83.69
2017-12-13T01:49:03.806Z,83.66
2017-12-13T01:51:32.984Z,83.75
2017-12-13T01:54:02.436Z,83.79
2017-12-13T01:56:31.825Z,83.54
2017-12-13T01:59:01.037Z,83.71
2017-12-13T02:01:31.056Z,83.57
2017-12-13T02:04:01.031Z,83.23
2017-12-13T02:06:30.475Z,82.98
2017-12-13T02:08:59.770Z,82.89
2017-12-13T02:11:29.750Z,82.89
2017-12-13T02:13:58.947Z,82.84
2017-12-13T02:16:28.174Z,82.73
2017-12-13T02:18:57.398Z,82.77
2017-12-13T02:21:27.392Z,82.88
2017-12-13T02:23:56.623Z,82.73
2017-12-13T02:26:25.850Z,82.64
2017-12-13T02:28:55.055Z,82.42
2017-12-13T02:31:24.259Z,82.32
2017-12-13T02:33:54.266Z,82.19
2017-12-13T02:36:23.482Z,82.14
2017-12-13T02:38:52.726Z,81.90
2017-12-13T02:41:22.047Z,82.07
2017-12-13T02:43:51.262Z,81.78
2017-12-13T02:46:20.455Z,82.00
2017-12-13T02:48:49.658Z,81.74
2017-12-13T02:51:18.897Z,81.93
2017-12-13T02:53:48.087Z,81.67
2017-12-13T02:56:18.062Z,81.71
2017-12-13T02:58:47.311Z,81.72
2017-12-13T03:01:17.827Z,81.69
2017-12-13T03:03:47.795Z,81.59
2017-12-13T03:06:17.014Z,81.58
2017-12-13T03:08:46.239Z,81.51
2017-12-13T03:11:16.209Z,81.53
2017-12-13T03:13:45.428Z,81.42
2017-12-13T03:16:14.630Z,81.25
2017-12-13T03:18:43.824Z,81.04
2017-12-13T03:21:13.034Z,81.16
2017-12-13T03:23:42.214Z,80.91
2017-12-13T03:26:11.607Z,80.70
2017-12-13T03:28:40.810Z,80.62
2017-12-13T03:31:10.060Z,80.57
2017-12-13T03:33:39.275Z,80.55
2017-12-13T03:36:08.463Z,80.61
2017-12-13T03:38:37.663Z,80.30
2017-12-13T03:41:06.861Z,80.16
2017-12-13T03:43:36.050Z,80.27
2017-12-13T03:46:05.380Z,80.47
2017-12-13T03:48:34.567Z,80.50
2017-12-13T03:51:03.770Z,80.53
2017-12-13T03:53:34.580Z,80.19
2017-12-13T03:56:05.559Z,80.36
2017-12-13T03:58:34.830Z,80.52
2017-12-13T04:01:04.146Z,80.44
2017-12-13T04:03:33.351Z,80.52
2017-12-13T04:06:02.542Z,80.43
2017-12-13T04:08:31.747Z,80.32
2017-12-13T04:11:00.947Z,80.26
2017-12-13T04:13:30.298Z,80.17
2017-12-13T04:15:59.501Z,80.37
2017-12-13T04:18:28.738Z,80.06
2017-12-13T04:20:57.958Z,80.51
2017-12-13T04:23:27.140Z,80.53
2017-12-13T04:25:56.419Z,80.42
2017-12-13T04:28:25.602Z,80.45
2017-12-13T04:30:55.015Z,80.21
2017-12-13T04:33:24.190Z,80.59
2017-12-13T04:35:53.561Z,80.62
2017-12-13T04:38:23.563Z,80.73
2017-12-13T04:40:52.825Z,80.51
2017-12-13T04:43:22.075Z,80.49
2017-12-13T04:45:52.129Z,80.49
2017-12-13T04:48:21.378Z,80.20
2017-12-13T04:50:50.610Z,80.15
2017-12-13T04:53:19.816Z,80.13
2017-12-13T04:55:49.038Z,79.96
2017-12-13T04:58:18.244Z,80.04
2017-12-13T05:00:47.530Z,80.08
2017-12-13T05:03:16.759Z,80.28
2017-12-13T05:05:46.002Z,80.22
2017-12-13T05:08:15.221Z,80.15
2017-12-13T05:10:44.411Z,79.91
2017-12-13T05:13:13.628Z,80.21
2017-12-13T05:15:42.836Z,80.01
2017-12-13T05:18:12.078Z,79.96
2017-12-13T05:20:41.280Z,79.85
2017-12-13T05:23:10.511Z,79.83
2017-12-13T05:25:39.729Z,79.77
2017-12-13T05:28:08.969Z,80.10
2017-12-13T05:30:38.232Z,80.07
2017-12-13T05:33:07.423Z,80.03
2017-12-13T05:35:36.622Z,79.80
2017-12-13T05:38:05.832Z,79.75
2017-12-13T05:40:35.071Z,79.75
2017-12-13T05:43:04.272Z,79.57
2017-12-13T05:45:33.484Z,79.70
2017-12-13T05:48:02.708Z,79.95
2017-12-13T05:50:31.977Z,80.27
2017-12-13T05:53:01.189Z,80.41
2017-12-13T05:55:30.435Z,80.48
2017-12-13T05:58:00.438Z,80.59
2017-12-13T06:00:29.651Z,80.56
2017-12-13T06:02:59.616Z,80.62
2017-12-13T06:05:28.826Z,80.60
2017-12-13T06:07:58.121Z,80.53
2017-12-13T06:10:27.331Z,80.60
2017-12-13T06:12:56.635Z,80.62
2017-12-13T06:15:26.632Z,80.61
2017-12-13T06:17:55.826Z,80.84
2017-12-13T06:20:25.110Z,80.79
2017-12-13T06:22:54.404Z,80.79
2017-12-13T06:25:23.689Z,80.58
2017-12-13T06:27:53.017Z,80.80
2017-12-13T06:30:22.259Z,80.79
2017-12-13T06:32:51.647Z,80.67
2017-12-13T06:35:20.835Z,80.58
2017-12-13T06:37:50.044Z,80.49
2017-12-13T06:40:19.254Z,80.48
2017-12-13T06:42:49.242Z,80.34
2017-12-13T06:45:19.233Z,80.38
2017-12-13T06:47:48.785Z,80.32
2017-12-13T06:50:17.975Z,80.30
2017-12-13T06:52:47.184Z,80.38
2017-12-13T06:55:17.151Z,80.40
2017-12-13T06:57:46.514Z,80.51
2017-12-13T07:00:16.470Z,80.46
2017-12-13T07:02:45.676Z,80.18
2017-12-13T07:05:15.101Z,80.22
2017-12-13T07:07:44.413Z,80.11
2017-12-13T07:10:14.372Z,80.02
2017-12-13T07:12:43.607Z,80.15
2017-12-13T07:15:12.825Z,80.03
2017-12-13T07:17:42.827Z,79.87
2017-12-13T07:20:12.019Z,79.62
2017-12-13T07:22:41.231Z,79.52
2017-12-13T07:25:11.579Z,79.32
2017-12-13T07:27:41.546Z,79.20
2017-12-13T07:30:10.760Z,79.21
2017-12-13T07:32:39.959Z,79.07
2017-12-13T07:35:09.163Z,79.06
2017-12-13T07:37:39.123Z,78.83
2017-12-13T07:40:08.355Z,79.08
2017-12-13T07:42:37.597Z,78.83
2017-12-13T07:45:07.583Z,78.93
2017-12-13T07:47:36.786Z,78.98
2017-12-13T07:50:06.778Z,78.81
2017-12-13T07:52:36.200Z,78.70
2017-12-13T07:55:05.398Z,78.67
2017-12-13T07:57:35.416Z,79.03
2017-12-13T08:00:04.591Z,78.76
2017-12-13T08:02:33.803Z,78.38
2017-12-13T08:05:02.988Z,78.17
2017-12-13T08:07:32.236Z,78.30
2017-12-13T08:10:01.451Z,78.29
2017-12-13T08:12:30.707Z,78.30
2017-12-13T08:15:00.699Z,77.95
2017-12-13T08:17:29.916Z,78.18
2017-12-13T08:19:59.148Z,77.97
2017-12-13T08:22:28.376Z,77.88
2017-12-13T08:24:57.556Z,77.44
2017-12-13T08:27:26.756Z,77.46
2017-12-13T08:29:56.010Z,77.48
2017-12-13T08:32:25.973Z,77.16
2017-12-13T08:34:55.191Z,77.16
2017-12-13T08:37:24.365Z,77.31
2017-12-13T08:39:53.839Z,77.07
2017-12-13T08:42:23.871Z,77.43
2017-12-13T08:44:53.070Z,77.05
2017-12-13T08:47:22.275Z,77.51
2017-12-13T08:49:51.496Z,77.57
2017-12-13T08:52:20.723Z,77.59
2017-12-13T08:54:50.696Z,77.78
2017-12-13T08:57:19.912Z,77.59
2017-12-13T08:59:49.145Z,77.62
2017-12-13T09:02:19.131Z,77.54
2017-12-13T09:04:48.451Z,77.41
2017-12-13T09:07:18.422Z,77.23
2017-12-13T09:09:47.703Z,77.61
2017-12-13T09:12:16.891Z,77.62
2017-12-13T09:14:46.240Z,77.28
2017-12-13T09:17:15.454Z,77.24
2017-12-13T09:19:45.446Z,77.22
2017-12-13T09:22:14.649Z,77.04
2017-12-13T09:24:43.908Z,76.59
2017-12-13T09:27:13.859Z,76.93
2017-12-13T09:29:43.073Z,77.19
2017-12-13T09:32:12.275Z,77.24
2017-12-13T09:34:41.494Z,77.41
2017-12-13T09:37:11.472Z,77.59
2017-12-13T09:39:40.706Z,77.29
2017-12-13T09:42:10.751Z,77.97
2017-12-13T09:44:39.937Z,77.81
2017-12-13T09:47:09.132Z,77.83
2017-12-13T09:49:38.336Z,77.81
2017-12-13T09:52:07.528Z,78.29
2017-12-13T09:54:36.723Z,78.62
2017-12-13T09:57:05.946Z,79.33
2017-12-13T09:59:35.162Z,79.57
2017-12-13T10:02:04.381Z,79.94
2017-12-13T10:04:35.107Z,80.14
2017-12-13T10:07:04.304Z,80.67
2017-12-13T10:09:33.524Z,80.90
2017-12-13T10:12:02.700Z,81.51
2017-12-13T10:14:31.901Z,82.10
2017-12-13T10:17:01.091Z,82.09
2017-12-13T10:19:30.322Z,82.15
2017-12-13T10:22:00.289Z,82.20
2017-12-13T10:24:29.525Z,82.37
2017-12-13T10:27:00.239Z,83.08
2017-12-13T10:29:29.443Z,83.22
2017-12-13T10:31:58.670Z,84.22
2017-12-13T10:34:27.884Z,84.45
2017-12-13T10:36:57.115Z,85.10
2017-12-13T10:39:26.315Z,85.17
2017-12-13T10:41:55.535Z,85.27
2017-12-13T10:44:24.800Z,85.62
2017-12-13T10:46:54.223Z,85.54
2017-12-13T10:49:24.223Z,86.24
2017-12-13T10:51:53.437Z,86.21
2017-12-13T10:54:22.651Z,86.40
2017-12-13T10:56:52.621Z,86.85
2017-12-13T10:59:21.827Z,87.19
2017-12-13T11:01:51.051Z,86.88
2017-12-13T11:04:20.251Z,86.69
2017-12-13T11:06:49.468Z,87.00
2017-12-13T11:09:18.700Z,86.51
2017-12-13T11:11:47.908Z,86.91
2017-12-13T11:14:17.127Z,87.12
2017-12-13T11:16:46.483Z,87.27
2017-12-13T11:19:15.784Z,87.49
2017-12-13T11:21:44.995Z,87.18
2017-12-13T11:24:14.198Z,86.95
2017-12-13T11:26:43.411Z,86.68
2017-12-13T11:29:12.671Z,87.02
2017-12-13T11:31:41.860Z,87.02
2017-12-13T11:34:11.916Z,86.45
2017-12-13T11:36:41.103Z,86.63
2017-12-13T11:39:10.303Z,86.42
2017-12-13T11:41:39.527Z,86.44
2017-12-13T11:44:08.764Z,86.29
2017-12-13T11:46:37.947Z,86.08
2017-12-13T11:49:07.169Z,86.27
2017-12-13T11:51:36.381Z,86.25
2017-12-13T11:54:06.367Z,86.65
2017-12-13T11:56:36.349Z,86.59
2017-12-13T11:59:05.573Z,86.74
2017-12-13T12:01:34.788Z,87.37
2017-12-13T12:04:04.017Z,87.39
2017-12-13T12:06:33.235Z,88.06
2017-12-13T12:09:02.432Z,88.14
2017-12-13T12:11:31.655Z,87.91
2017-12-13T12:14:01.672Z,88.05
2017-12-13T12:16:30.917Z,88.23
2017-12-13T12:19:00.242Z,88.66
2017-12-13T12:21:29.435Z,88.11
2017-12-13T12:23:58.667Z,88.12
2017-12-13T12:26:28.605Z,88.39
2017-12-13T12:28:57.809Z,88.53
2017-12-13T12:31:27.018Z,88.72
2017-12-13T12:33:56.244Z,88.62
2017-12-13T12:36:25.462Z,88.25
2017-12-13T12:38:54.661Z,88.22
2017-12-13T12:41:23.880Z,88.67
2017-12-13T12:43:53.278Z,88.81
2017-12-13T12:46:23.259Z,88.89
2017-12-13T12:48:52.549Z,89.15
2017-12-13T12:51:21.755Z,89.31
2017-12-13T12:53:50.976Z,89.06
2017-12-13T12:56:20.182Z,89.38
2017-12-13T12:58:50.142Z,89.57
2017-12-13T13:01:19.346Z,89.89
2017-12-13T13:03:48.548Z,89.83
2017-12-13T13:06:17.766Z,89.99
2017-12-13T13:08:46.967Z,89.87
2017-12-13T13:11:16.195Z,90.02
2017-12-13T13:13:46.162Z,89.84
2017-12-13T13:16:15.387Z,90.32
2017-12-13T13:18:44.615Z,90.21
2017-12-13T13:21:13.788Z,90.10
2017-12-13T13:23:43.761Z,90.07
2017-12-13T13:26:12.939Z,90.29
2017-12-13T13:28:42.386Z,89.86
2017-12-13T13:31:11.592Z,90.10
2017-12-13T13:33:40.833Z,90.13
2017-12-13T13:36:10.041Z,90.22
2017-12-13T13:38:39.311Z,90.06
2017-12-13T13:41:08.501Z,89.84
2017-12-13T13:43:37.740Z,90.04
2017-12-13T13:46:06.940Z,89.81
2017-12-13T13:48:36.137Z,89.87
2017-12-13T13:51:05.367Z,89.87
2017-12-13T13:53:34.600Z,89.74
2017-12-13T13:56:03.821Z,90.12
2017-12-13T13:58:33.069Z,90.00
2017-12-13T14:01:02.312Z,90.07
2017-12-13T14:03:31.551Z,90.14
2017-12-13T14:06:00.749Z,90.23
2017-12-13T14:08:29.967Z,90.18
2017-12-13T14:10:59.950Z,90.17
2017-12-13T14:13:29.170Z,90.14
2017-12-13T14:15:58.465Z,90.08
2017-12-13T14:18:28.456Z,90.25
2017-12-13T14:20:57.663Z,90.20
2017-12-13T14:23:26.938Z,90.50
2017-12-13T14:25:56.194Z,90.46
2017-12-13T14:28:26.175Z,90.53
2017-12-13T14:30:55.392Z,90.47
2017-12-13T14:33:24.632Z,90.96
2017-12-13T14:35:53.819Z,90.82
2017-12-13T14:38:23.082Z,90.43
2017-12-13T14:40:52.290Z,90.57
2017-12-13T14:43:22.250Z,90.85
2017-12-13T14:45:51.466Z,90.93
2017-12-13T14:48:20.690Z,91.17
2017-12-13T14:50:49.905Z,91.05
2017-12-13T14:53:19.967Z,91.07
2017-12-13T14:55:49.163Z,91.35
2017-12-13T14:58:18.368Z,91.38
2017-12-13T15:00:47.586Z,91.31
2017-12-13T15:03:16.806Z,91.39
2017-12-13T15:05:46.783Z,91.56
2017-12-13T15:08:16.023Z,91.51
2017-12-13T15:10:46.003Z,91.67
2017-12-13T15:13:15.235Z,91.75
2017-12-13T15:15:45.205Z,91.48
2017-12-13T15:18:14.402Z,91.68
2017-12-13T15:20:44.009Z,91.59
2017-12-13T15:23:13.200Z,91.45
2017-12-13T15:25:42.455Z,91.50
2017-12-13T15:28:12.582Z,91.68
2017-12-13T15:30:41.840Z,91.56
2017-12-13T15:33:11.405Z,91.51
2017-12-13T15:35:40.638Z,91.55
2017-12-13T15:38:09.851Z,91.62
2017-12-13T15:40:39.047Z,91.39
2017-12-13T15:43:08.252Z,91.83
2017-12-13T15:45:38.253Z,91.85
2017-12-13T15:48:07.471Z,92.07
2017-12-13T15:50:37.483Z,92.00
2017-12-13T15:53:06.786Z,91.87
2017-12-13T15:55:36.007Z,91.81
2017-12-13T15:58:05.207Z,91.46
2017-12-13T16:00:34.422Z,91.76
2017-12-13T16:03:03.632Z,91.69
2017-12-13T16:05:32.868Z,91.70
2017-12-13T16:08:02.108Z,91.68
2017-12-13T16:10:31.325Z,91.47
2017-12-13T16:13:01.863Z,91.35
2017-12-13T16:15:34.998Z,91.25
2017-12-13T16:18:04.962Z,91.12
2017-12-13T16:20:34.168Z,91.21
2017-12-13T16:23:03.437Z,91.28
2017-12-13T16:25:32.644Z,91.11
2017-12-13T16:28:01.882Z,91.23
2017-12-13T16:30:31.113Z,91.35
2017-12-13T16:33:00.382Z,91.14
2017-12-13T16:35:29.612Z,91.06
2017-12-13T16:37:58.844Z,90.86
2017-12-13T16:40:28.059Z,90.87
2017-12-13T16:42:57.291Z,90.79
2017-12-13T16:45:27.403Z,91.11
2017-12-13T16:47:57.398Z,91.07
2017-12-13T16:50:26.639Z,90.90
2017-12-13T16:52:55.894Z,91.22
2017-12-13T16:55:25.134Z,90.96
2017-12-13T16:57:54.390Z,91.11
2017-12-13T17:00:23.618Z,90.99
2017-12-13T17:02:53.600Z,90.82
2017-12-13T17:05:22.879Z,90.73
2017-12-13T17:07:52.140Z,90.71
2017-12-13T17:10:21.440Z,90.52
2017-12-13T17:12:50.658Z,90.55
2017-12-13T17:15:19.878Z,90.39
2017-12-13T17:17:49.180Z,90.47
2017-12-13T17:20:18.396Z,90.41
2017-12-13T17:22:47.846Z,90.29
2017-12-13T17:25:17.789Z,90.18
2017-12-13T17:27:47.827Z,89.89
2017-12-13T17:30:17.172Z,89.61
2017-12-13T17:32:46.426Z,89.79
2017-12-13T17:35:15.631Z,89.50
2017-12-13T17:37:44.821Z,89.45
2017-12-13T17:40:14.947Z,89.02
2017-12-13T17:42:44.147Z,89.19
2017-12-13T17:45:13.362Z,89.10
2017-12-13T17:47:43.391Z,88.92
2017-12-13T17:50:12.755Z,88.95
2017-12-13T17:52:42.062Z,88.81
2017-12-13T17:55:11.341Z,88.55
2017-12-13T17:57:40.595Z,88.33
2017-12-13T18:00:09.801Z,88.21
2017-12-13T18:02:39.031Z,88.50
2017-12-13T18:05:08.336Z,88.35
2017-12-13T18:07:37.619Z,88.11
2017-12-13T18:10:06.830Z,88.24
2017-12-13T18:12:36.053Z,88.04
2017-12-13T18:15:06.039Z,87.87
2017-12-13T18:17:35.255Z,88.26
2017-12-13T18:20:04.462Z,88.20
2017-12-13T18:22:33.671Z,88.10
2017-12-13T18:25:07.184Z,88.04
2017-12-13T18:27:36.416Z,88.34
2017-12-13T18:30:05.612Z,88.40
2017-12-13T18:32:34.846Z,88.45
2017-12-13T18:35:04.860Z,88.61
2017-12-13T18:37:34.910Z,88.50
2017-12-13T18:40:04.116Z,88.79
2017-12-13T18:42:33.336Z,88.95
2017-12-13T18:45:02.556Z,88.75
2017-12-13T18:47:31.796Z,88.55
2017-12-13T18:50:01.024Z,88.68
2017-12-13T18:52:30.228Z,88.39
2017-12-13T18:54:59.433Z,88.30
2017-12-13T18:57:28.685Z,87.82
2017-12-13T18:59:58.697Z,87.60
2017-12-13T19:02:27.911Z,87.83
2017-12-13T19:04:57.140Z,87.78
2017-12-13T19:07:26.385Z,87.82
2017-12-13T19:09:56.366Z,87.78
2017-12-13T19:12:25.631Z,87.81
2017-12-13T19:14:54.873Z,88.00
2017-12-13T19:17:24.154Z,88.18
2017-12-13T19:19:53.367Z,88.46
2017-12-13T19:22:23.320Z,88.74
2017-12-13T19:24:52.528Z,88.64
2017-12-13T19:27:21.798Z,88.80
2017-12-13T19:29:51.026Z,88.93
2017-12-13T19:32:20.300Z,89.43
2017-12-13T19:34:50.432Z,89.51
2017-12-13T19:37:20.379Z,89.72
2017-12-13T19:39:49.621Z,90.04
2017-12-13T19:42:18.786Z,90.23
2017-12-13T19:44:48.023Z,90.22
2017-12-13T19:47:17.206Z,90.22
2017-12-13T19:49:47.236Z,90.43
2017-12-13T19:52:17.320Z,90.53
2017-12-13T19:54:47.376Z,90.38
2017-12-13T19:57:17.311Z,90.55
2017-12-13T19:59:46.824Z,90.36
2017-12-13T20:02:16.134Z,89.98
2017-12-13T20:04:45.415Z,90.34
2017-12-13T20:07:14.962Z,90.71
2017-12-13T20:09:44.323Z,90.49
2017-12-13T20:12:13.614Z,90.77
2017-12-13T20:14:43.579Z,91.01
2017-12-13T20:17:12.788Z,91.12
2017-12-13T20:19:42.792Z,91.44
2017-12-13T20:22:12.048Z,91.47
2017-12-13T20:24:41.286Z,91.67
2017-12-13T20:27:10.574Z,91.85
2017-12-13T20:29:41.343Z,92.26
2017-12-13T20:32:11.452Z,92.64
2017-12-13T20:34:40.708Z,92.63
2017-12-13T20:37:09.941Z,92.73
2017-12-13T20:39:39.187Z,92.48
2017-12-13T20:42:09.162Z,92.70
2017-12-13T20:44:38.511Z,92.83
2017-12-13T20:47:07.764Z,92.49
2017-12-13T20:49:37.064Z,92.28
2017-12-13T20:52:06.400Z,92.42
2017-12-13T20:54:35.664Z,92.37
2017-12-13T20:57:05.678Z,91.62
2017-12-13T20:59:34.966Z,91.80
2017-12-13T21:02:04.143Z,91.92
2017-12-13T21:04:33.373Z,91.79
2017-12-13T21:07:02.685Z,92.02
2017-12-13T21:09:32.769Z,92.13
2017-12-13T21:12:02.153Z,91.97
2017-12-13T21:14:31.534Z,92.20
2017-12-13T21:17:00.775Z,92.18
2017-12-13T21:19:30.071Z,92.45
2017-12-13T21:21:59.348Z,92.42
2017-12-13T21:24:28.560Z,92.48
2017-12-13T21:26:57.817Z,92.41
2017-12-13T21:29:27.044Z,92.26
2017-12-13T21:31:56.284Z,92.39
2017-12-13T21:34:25.500Z,92.93
2017-12-13T21:36:54.751Z,93.54
2017-12-13T21:39:23.975Z,93.80
2017-12-13T21:41:53.976Z,94.00
2017-12-13T21:44:23.973Z,94.14
2017-12-13T21:46:53.240Z,93.97
2017-12-13T21:49:23.251Z,93.99
2017-12-13T21:51:53.236Z,94.01
2017-12-13T21:54:22.469Z,94.14
2017-12-13T21:56:52.463Z,94.09
2017-12-13T21:59:22.471Z,94.15
2017-12-13T22:01:51.694Z,93.93
2017-12-13T22:04:21.726Z,93.81
2017-12-13T22:06:51.731Z,93.73
2017-12-13T22:09:20.994Z,93.75
2017-12-13T22:11:50.189Z,92.88
2017-12-13T22:14:19.424Z,92.80
2017-12-13T22:16:49.383Z,92.91
2017-12-13T22:19:18.661Z,92.63
2017-12-13T22:21:47.843Z,92.49
2017-12-13T22:24:17.095Z,92.76
2017-12-13T22:26:46.324Z,92.60
2017-12-13T22:29:16.516Z,92.67
2017-12-13T22:31:45.719Z,92.89
2017-12-13T22:34:15.726Z,92.71
2017-12-13T22:36:44.958Z,92.80
2017-12-13T22:39:14.206Z,92.74
2017-12-13T22:41:43.408Z,92.91
2017-12-13T22:44:13.043Z,93.05
2017-12-13T22:46:42.438Z,92.79
2017-12-13T22:49:12.421Z,92.89
2017-12-13T22:51:41.640Z,92.95
2017-12-13T22:54:10.827Z,92.88
2017-12-13T22:56:40.035Z,92.88
2017-12-13T22:59:09.722Z,92.79
2017-12-13T23:01:38.964Z,92.67
2017-12-13T23:04:08.975Z,92.38
2017-12-13T23:06:38.299Z,92.26
2017-12-13T23:09:07.594Z,92.15
2017-12-13T23:11:36.754Z,91.51
2017-12-13T23:14:07.561Z,91.81
2017-12-13T23:16:36.865Z,91.63
2017-12-13T23:19:06.077Z,91.45
2017-12-13T23:21:35.283Z,91.56
2017-12-13T23:24:04.468Z,91.74
2017-12-13T23:26:33.706Z,91.49
2017-12-13T23:29:03.781Z,91.49
2017-12-13T23:31:33.035Z,91.48
2017-12-13T23:34:02.335Z,91.45
2017-12-13T23:36:32.337Z,91.35
2017-12-13T23:39:02.357Z,90.66
2017-12-13T23:41:31.578Z,90.42
2017-12-13T23:44:00.879Z,90.85
2017-12-13T23:46:30.079Z,90.30
2017-12-13T23:48:59.271Z,90.36
2017-12-13T23:51:28.554Z,90.01
2017-12-13T23:53:58.578Z,89.95
2017-12-13T23:56:27.818Z,89.95
2017-12-13T23:58:57.049Z,89.31
